sensor_id;sensor_type;location;lat;lon;timestamp;temperature;humidity
7646;DHT22;3864;48.180;14.178;2024-01-10T00:00:10;-5.60;99.90
7646;DHT22;3864;48.180;14.178;2024-01-10T00:02:37;-5.50;99.90
7646;DHT22;3864;48.180;14.178;2024-01-10T00:05:05;-5.50;99.90
7646;DHT22;3864;48.180;14.178;2024-01-10T00:07:33;-5.50;99.90
7646;DHT22;3864;48.180;14.178;2024-01-10T00:10:04;-5.50;99.90
7646;DHT22;3864;48.180;14.178;2024-01-10T00:12:31;-5.50;99.90
7646;DHT22;3864;48.180;14.178;2024-01-10T00:15:02;-5.50;99.90
7646;DHT22;3864;48.180;14.178;2024-01-10T00:17:30;-5.50;99.90
7646;DHT22;3864;48.180;14.178;2024-01-10T00:19:57;-5.50;99.90
7646;DHT22;3864;48.180;14.178;2024-01-10T00:22:24;-5.50;99.90
7646;DHT22;3864;48.180;14.178;2024-01-10T00:24:51;-5.50;99.90
7646;DHT22;3864;48.180;14.178;2024-01-10T00:27:20;-5.60;99.90
7646;DHT22;3864;48.180;14.178;2024-01-10T00:29:47;-5.60;99.90
7646;DHT22;3864;48.180;14.178;2024-01-10T00:32:16;-5.60;99.90
7646;DHT22;3864;48.180;14.178;2024-01-10T00:34:43;-5.60;99.90
7646;DHT22;3864;48.180;14.178;2024-01-10T00:37:11;-5.50;99.90
7646;DHT22;3864;48.180;14.178;2024-01-10T00:39:37;-5.60;99.90
7646;DHT22;3864;48.180;14.178;2024-01-10T00:42:05;-5.60;99.90
7646;DHT22;3864;48.180;14.178;2024-01-10T00:44:34;-5.70;99.90
7646;DHT22;3864;48.180;14.178;2024-01-10T00:47:02;-5.70;99.90
7646;DHT22;3864;48.180;14.178;2024-01-10T00:49:29;-5.80;99.90
7646;DHT22;3864;48.180;14.178;2024-01-10T00:51:56;-5.80;99.90
7646;DHT22;3864;48.180;14.178;2024-01-10T00:54:24;-5.80;99.90
7646;DHT22;3864;48.180;14.178;2024-01-10T00:56:51;-5.80;99.90
7646;DHT22;3864;48.180;14.178;2024-01-10T00:59:18;-5.80;99.90
7646;DHT22;3864;48.180;14.178;2024-01-10T01:01:47;-5.80;99.90
7646;DHT22;3864;48.180;14.178;2024-01-10T01:04:14;-5.90;99.90
7646;DHT22;3864;48.180;14.178;2024-01-10T01:06:41;-5.80;99.90
7646;DHT22;3864;48.180;14.178;2024-01-10T01:09:08;-5.90;99.90
7646;DHT22;3864;48.180;14.178;2024-01-10T01:11:35;-6.10;99.90
7646;DHT22;3864;48.180;14.178;2024-01-10T01:14:02;-6.20;99.90
7646;DHT22;3864;48.180;14.178;2024-01-10T01:16:29;-6.30;99.90
7646;DHT22;3864;48.180;14.178;2024-01-10T01:18:58;-6.50;99.90
7646;DHT22;3864;48.180;14.178;2024-01-10T01:21:25;-6.50;99.90
7646;DHT22;3864;48.180;14.178;2024-01-10T01:23:52;-6.60;99.90
7646;DHT22;3864;48.180;14.178;2024-01-10T01:26:19;-6.70;99.90
7646;DHT22;3864;48.180;14.178;2024-01-10T01:28:46;-6.70;99.90
7646;DHT22;3864;48.180;14.178;2024-01-10T01:31:13;-6.80;99.90
7646;DHT22;3864;48.180;14.178;2024-01-10T01:33:40;-6.70;99.90
7646;DHT22;3864;48.180;14.178;2024-01-10T01:36:08;-6.80;99.90
7646;DHT22;3864;48.180;14.178;2024-01-10T01:38:36;-6.70;99.90
7646;DHT22;3864;48.180;14.178;2024-01-10T01:41:03;-6.80;99.90
7646;DHT22;3864;48.180;14.178;2024-01-10T01:43:32;-6.70;99.90
7646;DHT22;3864;48.180;14.178;2024-01-10T01:45:59;-6.80;99.90
7646;DHT22;3864;48.180;14.178;2024-01-10T01:48:27;-6.80;99.90
7646;DHT22;3864;48.180;14.178;2024-01-10T01:50:56;-7.00;99.90
7646;DHT22;3864;48.180;14.178;2024-01-10T01:53:26;-7.10;99.90
7646;DHT22;3864;48.180;14.178;2024-01-10T01:55:54;-7.00;99.90
7646;DHT22;3864;48.180;14.178;2024-01-10T01:58:22;-7.00;99.90
7646;DHT22;3864;48.180;14.178;2024-01-10T02:00:50;-7.00;99.90
7646;DHT22;3864;48.180;14.178;2024-01-10T02:03:18;-7.00;99.90
7646;DHT22;3864;48.180;14.178;2024-01-10T02:05:46;-7.00;99.90
7646;DHT22;3864;48.180;14.178;2024-01-10T02:08:13;-7.00;99.90
7646;DHT22;3864;48.180;14.178;2024-01-10T02:10:42;-6.90;99.90
7646;DHT22;3864;48.180;14.178;2024-01-10T02:13:09;-6.90;99.90
7646;DHT22;3864;48.180;14.178;2024-01-10T02:15:38;-7.00;99.90
7646;DHT22;3864;48.180;14.178;2024-01-10T02:18:05;-7.10;99.90
7646;DHT22;3864;48.180;14.178;2024-01-10T02:20:32;-7.10;99.90
7646;DHT22;3864;48.180;14.178;2024-01-10T02:22:59;-7.20;99.90
7646;DHT22;3864;48.180;14.178;2024-01-10T02:25:28;-7.10;99.90
7646;DHT22;3864;48.180;14.178;2024-01-10T02:27:55;-7.20;99.90
7646;DHT22;3864;48.180;14.178;2024-01-10T02:30:22;-7.30;99.90
7646;DHT22;3864;48.180;14.178;2024-01-10T02:32:49;-7.20;99.90
7646;DHT22;3864;48.180;14.178;2024-01-10T02:35:16;-7.20;99.90
7646;DHT22;3864;48.180;14.178;2024-01-10T02:37:43;-7.30;99.90
7646;DHT22;3864;48.180;14.178;2024-01-10T02:40:10;-7.30;99.90
7646;DHT22;3864;48.180;14.178;2024-01-10T02:42:39;-7.30;99.90
7646;DHT22;3864;48.180;14.178;2024-01-10T02:45:06;-7.30;99.90
7646;DHT22;3864;48.180;14.178;2024-01-10T02:47:34;-7.30;99.90
7646;DHT22;3864;48.180;14.178;2024-01-10T02:50:02;-7.30;99.90
7646;DHT22;3864;48.180;14.178;2024-01-10T02:52:29;-7.30;99.90
7646;DHT22;3864;48.180;14.178;2024-01-10T02:54:56;-7.40;99.90
7646;DHT22;3864;48.180;14.178;2024-01-10T02:57:24;-7.40;99.90
7646;DHT22;3864;48.180;14.178;2024-01-10T02:59:52;-7.40;99.90
7646;DHT22;3864;48.180;14.178;2024-01-10T03:02:19;-7.40;99.90
7646;DHT22;3864;48.180;14.178;2024-01-10T03:04:48;-7.40;99.90
7646;DHT22;3864;48.180;14.178;2024-01-10T03:07:15;-7.40;99.90
7646;DHT22;3864;48.180;14.178;2024-01-10T03:09:42;-7.40;99.90
7646;DHT22;3864;48.180;14.178;2024-01-10T03:12:11;-7.40;99.90
7646;DHT22;3864;48.180;14.178;2024-01-10T03:14:38;-7.40;99.90
7646;DHT22;3864;48.180;14.178;2024-01-10T03:17:08;-7.40;99.90
7646;DHT22;3864;48.180;14.178;2024-01-10T03:20:39;-7.50;99.90
7646;DHT22;3864;48.180;14.178;2024-01-10T03:23:23;-7.40;99.90
7646;DHT22;3864;48.180;14.178;2024-01-10T03:25:49;-7.50;99.90
7646;DHT22;3864;48.180;14.178;2024-01-10T03:28:17;-7.50;99.90
7646;DHT22;3864;48.180;14.178;2024-01-10T03:30:44;-7.40;99.90
7646;DHT22;3864;48.180;14.178;2024-01-10T03:33:13;-7.30;99.90
7646;DHT22;3864;48.180;14.178;2024-01-10T03:35:41;-7.30;99.90
7646;DHT22;3864;48.180;14.178;2024-01-10T03:38:08;-7.20;99.90
7646;DHT22;3864;48.180;14.178;2024-01-10T03:40:35;-7.20;99.90
7646;DHT22;3864;48.180;14.178;2024-01-10T03:43:03;-7.10;99.90
7646;DHT22;3864;48.180;14.178;2024-01-10T03:45:30;-7.20;99.90
7646;DHT22;3864;48.180;14.178;2024-01-10T03:47:57;-7.20;99.90
7646;DHT22;3864;48.180;14.178;2024-01-10T03:50:25;-7.20;99.90
7646;DHT22;3864;48.180;14.178;2024-01-10T03:52:52;-7.10;99.90
7646;DHT22;3864;48.180;14.178;2024-01-10T03:55:20;-7.10;99.90
7646;DHT22;3864;48.180;14.178;2024-01-10T03:57:47;-7.10;99.90
7646;DHT22;3864;48.180;14.178;2024-01-10T04:00:14;-7.10;99.90
7646;DHT22;3864;48.180;14.178;2024-01-10T04:02:41;-7.20;99.90
7646;DHT22;3864;48.180;14.178;2024-01-10T04:05:08;-7.20;99.90
7646;DHT22;3864;48.180;14.178;2024-01-10T04:07:39;-7.10;99.90
7646;DHT22;3864;48.180;14.178;2024-01-10T04:10:07;-7.10;99.90
7646;DHT22;3864;48.180;14.178;2024-01-10T04:12:36;-7.20;99.90
7646;DHT22;3864;48.180;14.178;2024-01-10T04:15:05;-7.30;99.90
7646;DHT22;3864;48.180;14.178;2024-01-10T04:17:32;-7.30;99.90
7646;DHT22;3864;48.180;14.178;2024-01-10T04:19:59;-7.30;99.90
7646;DHT22;3864;48.180;14.178;2024-01-10T04:22:26;-7.40;99.90
7646;DHT22;3864;48.180;14.178;2024-01-10T04:24:56;-7.20;99.90
7646;DHT22;3864;48.180;14.178;2024-01-10T04:27:24;-7.20;99.90
7646;DHT22;3864;48.180;14.178;2024-01-10T04:29:50;-7.30;99.90
7646;DHT22;3864;48.180;14.178;2024-01-10T04:32:17;-7.30;99.90
7646;DHT22;3864;48.180;14.178;2024-01-10T04:35:33;-7.40;99.90
7646;DHT22;3864;48.180;14.178;2024-01-10T04:37:44;-7.30;99.90
7646;DHT22;3864;48.180;14.178;2024-01-10T04:40:13;-7.30;99.90
7646;DHT22;3864;48.180;14.178;2024-01-10T04:42:40;-7.40;99.90
7646;DHT22;3864;48.180;14.178;2024-01-10T04:45:07;-7.40;99.90
7646;DHT22;3864;48.180;14.178;2024-01-10T04:47:34;-7.40;99.90
7646;DHT22;3864;48.180;14.178;2024-01-10T04:50:01;-7.40;99.90
7646;DHT22;3864;48.180;14.178;2024-01-10T04:52:28;-7.30;99.90
7646;DHT22;3864;48.180;14.178;2024-01-10T04:54:55;-7.30;99.90
7646;DHT22;3864;48.180;14.178;2024-01-10T04:57:24;-7.40;99.90
7646;DHT22;3864;48.180;14.178;2024-01-10T04:59:51;-7.40;99.90
7646;DHT22;3864;48.180;14.178;2024-01-10T05:02:18;-7.30;99.90
7646;DHT22;3864;48.180;14.178;2024-01-10T05:04:45;-7.30;99.90
7646;DHT22;3864;48.180;14.178;2024-01-10T05:07:12;-7.40;99.90
7646;DHT22;3864;48.180;14.178;2024-01-10T05:09:39;-7.50;99.90
7646;DHT22;3864;48.180;14.178;2024-01-10T05:12:07;-7.60;99.90
7646;DHT22;3864;48.180;14.178;2024-01-10T05:14:35;-7.70;99.90
7646;DHT22;3864;48.180;14.178;2024-01-10T05:17:02;-7.70;99.90
7646;DHT22;3864;48.180;14.178;2024-01-10T05:19:30;-7.80;99.90
7646;DHT22;3864;48.180;14.178;2024-01-10T05:21:56;-7.80;99.90
7646;DHT22;3864;48.180;14.178;2024-01-10T05:24:26;-7.80;99.90
7646;DHT22;3864;48.180;14.178;2024-01-10T05:38:09;-7.90;99.90
7646;DHT22;3864;48.180;14.178;2024-01-10T06:37:42;-8.30;99.90
7646;DHT22;3864;48.180;14.178;2024-01-10T07:05:16;-8.60;99.90
7646;DHT22;3864;48.180;14.178;2024-01-10T07:07:46;-8.60;99.90
7646;DHT22;3864;48.180;14.178;2024-01-10T07:10:15;-8.60;99.90
7646;DHT22;3864;48.180;14.178;2024-01-10T07:12:45;-8.60;99.90
7646;DHT22;3864;48.180;14.178;2024-01-10T07:15:19;-8.50;99.90
7646;DHT22;3864;48.180;14.178;2024-01-10T07:17:48;-8.50;99.90
7646;DHT22;3864;48.180;14.178;2024-01-10T07:20:20;-8.40;99.90
7646;DHT22;3864;48.180;14.178;2024-01-10T07:22:51;-8.40;99.90
7646;DHT22;3864;48.180;14.178;2024-01-10T07:25:21;-8.30;99.90
7646;DHT22;3864;48.180;14.178;2024-01-10T07:27:53;-8.20;99.90
7646;DHT22;3864;48.180;14.178;2024-01-10T07:30:27;-8.20;99.90
7646;DHT22;3864;48.180;14.178;2024-01-10T07:34:52;-8.20;99.90
7646;DHT22;3864;48.180;14.178;2024-01-10T07:36:47;-8.20;99.90
7646;DHT22;3864;48.180;14.178;2024-01-10T07:46:47;-8.10;99.90
7646;DHT22;3864;48.180;14.178;2024-01-10T08:25:50;-7.00;99.90
7646;DHT22;3864;48.180;14.178;2024-01-10T08:32:05;-6.80;99.90
7646;DHT22;3864;48.180;14.178;2024-01-10T08:34:32;-6.80;99.90
7646;DHT22;3864;48.180;14.178;2024-01-10T08:36:59;-6.70;99.90
7646;DHT22;3864;48.180;14.178;2024-01-10T08:39:26;-6.70;99.90
7646;DHT22;3864;48.180;14.178;2024-01-10T08:41:57;-6.60;99.90
7646;DHT22;3864;48.180;14.178;2024-01-10T08:44:24;-6.60;99.90
7646;DHT22;3864;48.180;14.178;2024-01-10T08:46:51;-6.50;99.90
7646;DHT22;3864;48.180;14.178;2024-01-10T08:49:18;-6.50;99.90
7646;DHT22;3864;48.180;14.178;2024-01-10T08:51:45;-6.50;99.90
7646;DHT22;3864;48.180;14.178;2024-01-10T08:54:13;-6.50;99.90
7646;DHT22;3864;48.180;14.178;2024-01-10T08:56:42;-6.50;99.90
7646;DHT22;3864;48.180;14.178;2024-01-10T08:59:12;-6.50;99.90
7646;DHT22;3864;48.180;14.178;2024-01-10T09:01:39;-6.40;99.90
7646;DHT22;3864;48.180;14.178;2024-01-10T09:04:06;-6.40;99.90
7646;DHT22;3864;48.180;14.178;2024-01-10T09:06:33;-6.30;99.90
7646;DHT22;3864;48.180;14.178;2024-01-10T09:09:00;-6.20;99.90
7646;DHT22;3864;48.180;14.178;2024-01-10T09:11:28;-6.20;99.90
7646;DHT22;3864;48.180;14.178;2024-01-10T09:13:55;-6.10;99.90
7646;DHT22;3864;48.180;14.178;2024-01-10T09:16:23;-6.10;99.90
7646;DHT22;3864;48.180;14.178;2024-01-10T09:18:50;-6.00;99.90
7646;DHT22;3864;48.180;14.178;2024-01-10T09:21:20;-6.00;99.90
7646;DHT22;3864;48.180;14.178;2024-01-10T09:23:47;-5.90;99.90
7646;DHT22;3864;48.180;14.178;2024-01-10T09:26:16;-5.90;99.90
7646;DHT22;3864;48.180;14.178;2024-01-10T09:28:43;-5.90;99.90
7646;DHT22;3864;48.180;14.178;2024-01-10T09:31:10;-5.80;99.90
7646;DHT22;3864;48.180;14.178;2024-01-10T09:33:39;-5.70;99.90
7646;DHT22;3864;48.180;14.178;2024-01-10T09:36:07;-5.60;99.90
7646;DHT22;3864;48.180;14.178;2024-01-10T09:38:35;-5.60;99.90
7646;DHT22;3864;48.180;14.178;2024-01-10T09:41:04;-5.60;99.90
7646;DHT22;3864;48.180;14.178;2024-01-10T09:43:31;-5.60;99.90
7646;DHT22;3864;48.180;14.178;2024-01-10T09:46:00;-5.50;99.90
7646;DHT22;3864;48.180;14.178;2024-01-10T09:48:27;-5.50;99.90
7646;DHT22;3864;48.180;14.178;2024-01-10T09:50:56;-5.40;99.90
7646;DHT22;3864;48.180;14.178;2024-01-10T09:53:24;-5.40;99.90
7646;DHT22;3864;48.180;14.178;2024-01-10T09:55:52;-5.20;99.90
7646;DHT22;3864;48.180;14.178;2024-01-10T09:58:23;-5.10;99.90
7646;DHT22;3864;48.180;14.178;2024-01-10T10:00:50;-5.00;99.90
7646;DHT22;3864;48.180;14.178;2024-01-10T10:03:18;-4.90;99.90
7646;DHT22;3864;48.180;14.178;2024-01-10T10:05:46;-4.80;99.90
7646;DHT22;3864;48.180;14.178;2024-01-10T10:08:15;-4.90;99.90
7646;DHT22;3864;48.180;14.178;2024-01-10T10:10:48;-4.90;99.90
7646;DHT22;3864;48.180;14.178;2024-01-10T10:13:24;-4.90;99.90
7646;DHT22;3864;48.180;14.178;2024-01-10T10:15:59;-4.90;99.90
7646;DHT22;3864;48.180;14.178;2024-01-10T10:18:26;-4.80;99.90
7646;DHT22;3864;48.180;14.178;2024-01-10T10:21:09;-4.80;99.90
7646;DHT22;3864;48.180;14.178;2024-01-10T10:23:39;-4.80;99.90
7646;DHT22;3864;48.180;14.178;2024-01-10T10:26:11;-4.70;99.90
7646;DHT22;3864;48.180;14.178;2024-01-10T10:28:40;-4.70;99.90
7646;DHT22;3864;48.180;14.178;2024-01-10T10:31:08;-4.70;99.90
7646;DHT22;3864;48.180;14.178;2024-01-10T10:33:35;-4.60;99.90
7646;DHT22;3864;48.180;14.178;2024-01-10T10:36:03;-4.50;99.90
7646;DHT22;3864;48.180;14.178;2024-01-10T10:38:30;-4.60;99.90
7646;DHT22;3864;48.180;14.178;2024-01-10T10:40:59;-4.50;99.90
7646;DHT22;3864;48.180;14.178;2024-01-10T10:43:30;-4.50;99.90
7646;DHT22;3864;48.180;14.178;2024-01-10T10:46:01;-4.50;99.90
7646;DHT22;3864;48.180;14.178;2024-01-10T10:48:32;-4.40;99.90
7646;DHT22;3864;48.180;14.178;2024-01-10T10:51:04;-4.30;99.90
7646;DHT22;3864;48.180;14.178;2024-01-10T10:53:34;-4.30;99.90
7646;DHT22;3864;48.180;14.178;2024-01-10T10:56:06;-4.20;99.90
7646;DHT22;3864;48.180;14.178;2024-01-10T10:58:34;-4.10;99.90
7646;DHT22;3864;48.180;14.178;2024-01-10T11:01:04;-4.20;99.90
7646;DHT22;3864;48.180;14.178;2024-01-10T11:03:35;-4.10;99.90
7646;DHT22;3864;48.180;14.178;2024-01-10T11:06:04;-4.10;99.90
7646;DHT22;3864;48.180;14.178;2024-01-10T11:08:35;-4.10;99.90
7646;DHT22;3864;48.180;14.178;2024-01-10T11:11:07;-4.10;99.90
7646;DHT22;3864;48.180;14.178;2024-01-10T11:13:56;-4.10;99.90
7646;DHT22;3864;48.180;14.178;2024-01-10T11:16:54;-4.00;99.90
7646;DHT22;3864;48.180;14.178;2024-01-10T11:23:10;-3.90;99.90
7646;DHT22;3864;48.180;14.178;2024-01-10T11:25:41;-3.80;99.90
7646;DHT22;3864;48.180;14.178;2024-01-10T11:28:12;-3.80;99.90
7646;DHT22;3864;48.180;14.178;2024-01-10T11:30:49;-3.80;99.90
7646;DHT22;3864;48.180;14.178;2024-01-10T11:33:22;-3.70;99.90
7646;DHT22;3864;48.180;14.178;2024-01-10T11:36:09;-3.60;99.90
7646;DHT22;3864;48.180;14.178;2024-01-10T11:38:44;-3.50;99.90
7646;DHT22;3864;48.180;14.178;2024-01-10T11:41:20;-3.50;99.90
7646;DHT22;3864;48.180;14.178;2024-01-10T11:46:32;-3.10;99.90
7646;DHT22;3864;48.180;14.178;2024-01-10T11:48:59;-3.20;99.90
7646;DHT22;3864;48.180;14.178;2024-01-10T11:51:29;-3.20;99.90
7646;DHT22;3864;48.180;14.178;2024-01-10T11:53:56;-3.30;99.90
7646;DHT22;3864;48.180;14.178;2024-01-10T11:56:37;-3.30;99.90
7646;DHT22;3864;48.180;14.178;2024-01-10T11:59:07;-3.40;99.90
7646;DHT22;3864;48.180;14.178;2024-01-10T12:01:38;-3.40;99.90
7646;DHT22;3864;48.180;14.178;2024-01-10T12:04:05;-3.40;99.90
7646;DHT22;3864;48.180;14.178;2024-01-10T12:06:34;-3.40;99.90
7646;DHT22;3864;48.180;14.178;2024-01-10T12:09:02;-3.40;99.90
7646;DHT22;3864;48.180;14.178;2024-01-10T12:11:34;-3.40;99.90
7646;DHT22;3864;48.180;14.178;2024-01-10T12:14:02;-3.40;99.90
7646;DHT22;3864;48.180;14.178;2024-01-10T12:16:29;-3.30;99.90
7646;DHT22;3864;48.180;14.178;2024-01-10T12:18:57;-3.20;99.90
7646;DHT22;3864;48.180;14.178;2024-01-10T12:21:24;-3.20;99.90
7646;DHT22;3864;48.180;14.178;2024-01-10T12:23:51;-3.20;99.90
7646;DHT22;3864;48.180;14.178;2024-01-10T12:26:19;-3.30;99.90
7646;DHT22;3864;48.180;14.178;2024-01-10T12:28:53;-3.30;99.90
7646;DHT22;3864;48.180;14.178;2024-01-10T12:31:21;-3.30;99.90
7646;DHT22;3864;48.180;14.178;2024-01-10T12:33:48;-3.30;99.90
7646;DHT22;3864;48.180;14.178;2024-01-10T12:36:18;-3.30;99.90
7646;DHT22;3864;48.180;14.178;2024-01-10T12:38:45;-3.00;99.90
7646;DHT22;3864;48.180;14.178;2024-01-10T12:41:14;-3.10;99.90
7646;DHT22;3864;48.180;14.178;2024-01-10T12:43:42;-3.10;99.90
7646;DHT22;3864;48.180;14.178;2024-01-10T12:46:09;-3.10;99.90
7646;DHT22;3864;48.180;14.178;2024-01-10T12:48:38;-3.00;99.90
7646;DHT22;3864;48.180;14.178;2024-01-10T12:51:07;-3.00;99.90
7646;DHT22;3864;48.180;14.178;2024-01-10T12:53:37;-2.90;99.90
7646;DHT22;3864;48.180;14.178;2024-01-10T12:56:06;-2.90;99.90
7646;DHT22;3864;48.180;14.178;2024-01-10T12:58:34;-2.90;99.90
7646;DHT22;3864;48.180;14.178;2024-01-10T13:01:02;-2.90;99.90
7646;DHT22;3864;48.180;14.178;2024-01-10T13:03:30;-2.90;99.90
7646;DHT22;3864;48.180;14.178;2024-01-10T13:05:57;-2.90;99.90
7646;DHT22;3864;48.180;14.178;2024-01-10T13:08:24;-2.90;99.90
7646;DHT22;3864;48.180;14.178;2024-01-10T13:10:53;-3.00;99.90
7646;DHT22;3864;48.180;14.178;2024-01-10T13:13:20;-3.00;99.90
7646;DHT22;3864;48.180;14.178;2024-01-10T13:15:48;-3.00;99.90
7646;DHT22;3864;48.180;14.178;2024-01-10T13:18:16;-2.90;99.90
7646;DHT22;3864;48.180;14.178;2024-01-10T13:20:43;-2.90;99.90
7646;DHT22;3864;48.180;14.178;2024-01-10T13:23:10;-2.80;99.90
7646;DHT22;3864;48.180;14.178;2024-01-10T13:25:37;-2.80;99.90
7646;DHT22;3864;48.180;14.178;2024-01-10T13:28:06;-2.80;99.90
7646;DHT22;3864;48.180;14.178;2024-01-10T13:30:33;-2.80;99.90
7646;DHT22;3864;48.180;14.178;2024-01-10T13:33:00;-2.80;99.90
7646;DHT22;3864;48.180;14.178;2024-01-10T13:35:27;-2.90;99.90
7646;DHT22;3864;48.180;14.178;2024-01-10T13:37:54;-2.90;99.90
7646;DHT22;3864;48.180;14.178;2024-01-10T13:40:21;-2.80;99.90
7646;DHT22;3864;48.180;14.178;2024-01-10T13:42:50;-2.80;99.90
7646;DHT22;3864;48.180;14.178;2024-01-10T13:45:18;-2.70;99.90
7646;DHT22;3864;48.180;14.178;2024-01-10T13:47:46;-2.70;99.90
7646;DHT22;3864;48.180;14.178;2024-01-10T13:50:14;-2.80;99.90
7646;DHT22;3864;48.180;14.178;2024-01-10T13:52:41;-2.80;99.90
7646;DHT22;3864;48.180;14.178;2024-01-10T13:55:08;-2.80;99.90
7646;DHT22;3864;48.180;14.178;2024-01-10T13:57:35;-2.80;99.90
7646;DHT22;3864;48.180;14.178;2024-01-10T14:00:03;-2.80;99.90
7646;DHT22;3864;48.180;14.178;2024-01-10T14:02:34;-2.80;99.90
7646;DHT22;3864;48.180;14.178;2024-01-10T14:05:02;-2.80;99.90
7646;DHT22;3864;48.180;14.178;2024-01-10T14:07:31;-2.80;99.90
7646;DHT22;3864;48.180;14.178;2024-01-10T14:09:59;-2.80;99.90
7646;DHT22;3864;48.180;14.178;2024-01-10T14:12:27;-2.80;99.90
7646;DHT22;3864;48.180;14.178;2024-01-10T14:14:55;-2.70;99.90
7646;DHT22;3864;48.180;14.178;2024-01-10T14:17:23;-2.70;99.90
7646;DHT22;3864;48.180;14.178;2024-01-10T14:19:52;-2.60;99.90
7646;DHT22;3864;48.180;14.178;2024-01-10T14:22:19;-2.60;99.90
7646;DHT22;3864;48.180;14.178;2024-01-10T14:24:49;-2.60;99.90
7646;DHT22;3864;48.180;14.178;2024-01-10T14:27:16;-2.60;99.90
7646;DHT22;3864;48.180;14.178;2024-01-10T14:29:43;-2.70;99.90
7646;DHT22;3864;48.180;14.178;2024-01-10T14:32:10;-2.70;99.90
7646;DHT22;3864;48.180;14.178;2024-01-10T14:34:39;-2.80;99.90
7646;DHT22;3864;48.180;14.178;2024-01-10T14:37:07;-2.90;99.90
7646;DHT22;3864;48.180;14.178;2024-01-10T14:39:35;-3.00;99.90
7646;DHT22;3864;48.180;14.178;2024-01-10T14:42:05;-3.10;99.90
7646;DHT22;3864;48.180;14.178;2024-01-10T14:44:33;-3.10;99.90
7646;DHT22;3864;48.180;14.178;2024-01-10T14:47:01;-3.20;99.90
7646;DHT22;3864;48.180;14.178;2024-01-10T14:49:29;-3.40;99.90
7646;DHT22;3864;48.180;14.178;2024-01-10T14:51:56;-3.40;99.90
7646;DHT22;3864;48.180;14.178;2024-01-10T14:54:25;-3.50;99.90
7646;DHT22;3864;48.180;14.178;2024-01-10T14:56:52;-3.50;99.90
7646;DHT22;3864;48.180;14.178;2024-01-10T14:59:19;-3.60;99.90
7646;DHT22;3864;48.180;14.178;2024-01-10T15:01:46;-3.70;99.90
7646;DHT22;3864;48.180;14.178;2024-01-10T15:04:14;-3.80;99.90
7646;DHT22;3864;48.180;14.178;2024-01-10T15:06:44;-3.80;99.90
7646;DHT22;3864;48.180;14.178;2024-01-10T15:09:12;-3.80;99.90
7646;DHT22;3864;48.180;14.178;2024-01-10T15:11:41;-3.70;99.90
7646;DHT22;3864;48.180;14.178;2024-01-10T15:14:08;-3.80;99.90
7646;DHT22;3864;48.180;14.178;2024-01-10T15:16:36;-3.80;99.90
7646;DHT22;3864;48.180;14.178;2024-01-10T15:19:03;-4.00;99.90
7646;DHT22;3864;48.180;14.178;2024-01-10T15:21:30;-4.10;99.90
7646;DHT22;3864;48.180;14.178;2024-01-10T15:23:57;-4.20;99.90
7646;DHT22;3864;48.180;14.178;2024-01-10T15:26:24;-4.20;99.90
7646;DHT22;3864;48.180;14.178;2024-01-10T15:28:53;-4.30;99.90
7646;DHT22;3864;48.180;14.178;2024-01-10T15:31:21;-4.40;99.90
7646;DHT22;3864;48.180;14.178;2024-01-10T15:33:49;-4.50;99.90
7646;DHT22;3864;48.180;14.178;2024-01-10T15:36:17;-4.60;99.90
7646;DHT22;3864;48.180;14.178;2024-01-10T15:38:44;-4.70;99.90
7646;DHT22;3864;48.180;14.178;2024-01-10T15:41:11;-4.70;99.90
7646;DHT22;3864;48.180;14.178;2024-01-10T15:43:38;-4.80;99.90
7646;DHT22;3864;48.180;14.178;2024-01-10T15:46:07;-4.70;99.90
7646;DHT22;3864;48.180;14.178;2024-01-10T15:48:34;-4.60;99.90
7646;DHT22;3864;48.180;14.178;2024-01-10T15:51:01;-4.60;99.90
7646;DHT22;3864;48.180;14.178;2024-01-10T15:53:28;-4.60;99.90
7646;DHT22;3864;48.180;14.178;2024-01-10T15:55:57;-4.70;99.90
7646;DHT22;3864;48.180;14.178;2024-01-10T15:58:24;-4.80;99.90
7646;DHT22;3864;48.180;14.178;2024-01-10T16:00:51;-4.80;99.90
7646;DHT22;3864;48.180;14.178;2024-01-10T16:03:20;-4.90;99.90
7646;DHT22;3864;48.180;14.178;2024-01-10T16:05:47;-5.00;99.90
7646;DHT22;3864;48.180;14.178;2024-01-10T16:08:17;-5.00;99.90
7646;DHT22;3864;48.180;14.178;2024-01-10T16:10:45;-5.00;99.90
7646;DHT22;3864;48.180;14.178;2024-01-10T16:13:12;-5.10;99.90
7646;DHT22;3864;48.180;14.178;2024-01-10T16:15:39;-5.10;99.90
7646;DHT22;3864;48.180;14.178;2024-01-10T16:18:07;-5.10;99.90
7646;DHT22;3864;48.180;14.178;2024-01-10T16:20:35;-5.20;99.90
7646;DHT22;3864;48.180;14.178;2024-01-10T16:23:04;-5.30;99.90
7646;DHT22;3864;48.180;14.178;2024-01-10T16:25:31;-5.40;99.90
7646;DHT22;3864;48.180;14.178;2024-01-10T16:27:57;-5.40;99.90
7646;DHT22;3864;48.180;14.178;2024-01-10T16:30:25;-5.40;99.90
7646;DHT22;3864;48.180;14.178;2024-01-10T16:32:52;-5.40;99.90
7646;DHT22;3864;48.180;14.178;2024-01-10T16:35:19;-5.40;99.90
7646;DHT22;3864;48.180;14.178;2024-01-10T16:37:48;-5.50;99.90
7646;DHT22;3864;48.180;14.178;2024-01-10T16:40:15;-5.50;99.90
7646;DHT22;3864;48.180;14.178;2024-01-10T16:42:42;-5.70;99.90
7646;DHT22;3864;48.180;14.178;2024-01-10T16:45:10;-5.80;99.90
7646;DHT22;3864;48.180;14.178;2024-01-10T16:47:37;-5.80;99.90
7646;DHT22;3864;48.180;14.178;2024-01-10T16:50:05;-5.90;99.90
7646;DHT22;3864;48.180;14.178;2024-01-10T16:52:33;-5.90;99.90
7646;DHT22;3864;48.180;14.178;2024-01-10T16:55:01;-6.00;99.90
7646;DHT22;3864;48.180;14.178;2024-01-10T16:57:28;-6.00;99.90
7646;DHT22;3864;48.180;14.178;2024-01-10T16:59:55;-5.80;99.90
7646;DHT22;3864;48.180;14.178;2024-01-10T17:02:23;-5.80;99.90
7646;DHT22;3864;48.180;14.178;2024-01-10T17:04:50;-5.90;99.90
7646;DHT22;3864;48.180;14.178;2024-01-10T17:07:17;-6.00;99.90
7646;DHT22;3864;48.180;14.178;2024-01-10T17:09:44;-6.10;99.90
7646;DHT22;3864;48.180;14.178;2024-01-10T17:12:13;-6.20;99.90
7646;DHT22;3864;48.180;14.178;2024-01-10T17:18:04;-6.30;99.90
7646;DHT22;3864;48.180;14.178;2024-01-10T17:20:31;-6.40;99.90
7646;DHT22;3864;48.180;14.178;2024-01-10T17:22:58;-6.30;99.90
7646;DHT22;3864;48.180;14.178;2024-01-10T17:25:26;-6.30;99.90
7646;DHT22;3864;48.180;14.178;2024-01-10T17:27:55;-6.30;99.90
7646;DHT22;3864;48.180;14.178;2024-01-10T17:30:22;-6.30;99.90
7646;DHT22;3864;48.180;14.178;2024-01-10T17:32:49;-6.30;99.90
7646;DHT22;3864;48.180;14.178;2024-01-10T17:35:16;-6.40;99.90
7646;DHT22;3864;48.180;14.178;2024-01-10T17:37:43;-6.40;99.90
7646;DHT22;3864;48.180;14.178;2024-01-10T17:40:10;-6.50;99.90
7646;DHT22;3864;48.180;14.178;2024-01-10T17:42:39;-6.60;99.90
7646;DHT22;3864;48.180;14.178;2024-01-10T17:45:09;-6.70;99.90
7646;DHT22;3864;48.180;14.178;2024-01-10T17:47:36;-6.80;99.90
7646;DHT22;3864;48.180;14.178;2024-01-10T17:50:04;-6.80;99.90
7646;DHT22;3864;48.180;14.178;2024-01-10T17:52:31;-6.80;99.90
7646;DHT22;3864;48.180;14.178;2024-01-10T17:54:58;-6.80;99.90
7646;DHT22;3864;48.180;14.178;2024-01-10T17:57:31;-6.90;99.90
7646;DHT22;3864;48.180;14.178;2024-01-10T17:59:58;-6.90;99.90
7646;DHT22;3864;48.180;14.178;2024-01-10T18:02:27;-6.80;99.90
7646;DHT22;3864;48.180;14.178;2024-01-10T18:04:54;-6.90;99.90
7646;DHT22;3864;48.180;14.178;2024-01-10T18:07:21;-6.90;99.90
7646;DHT22;3864;48.180;14.178;2024-01-10T18:09:48;-6.90;99.90
7646;DHT22;3864;48.180;14.178;2024-01-10T18:12:15;-6.90;99.90
7646;DHT22;3864;48.180;14.178;2024-01-10T18:14:42;-7.10;99.90
7646;DHT22;3864;48.180;14.178;2024-01-10T18:17:10;-7.20;99.90
7646;DHT22;3864;48.180;14.178;2024-01-10T18:19:39;-7.30;99.90
7646;DHT22;3864;48.180;14.178;2024-01-10T18:22:06;-7.40;99.90
7646;DHT22;3864;48.180;14.178;2024-01-10T18:24:33;-7.40;99.90